^^
TXWeather Station Historical Data
Daily Summary for May 11, 2022 Units:  English    Metric   Both
Daily Weekly Monthly Yearly Custom
  High: Low: Average:
Temperature: 92.0 °F 73.0 °F 82.1 °F
Dew Point: 74.0 °F 69.0 °F 71.2 °F
Humidity: 90% 50% 71%
Wind Speed: 15mph 0mph 6.7mph
Wind Gust: 15mph - -
Wind- - SE
Pressure: 30.2 in 30.1 in -
Precipitation: 0.000 in    
Historical Graphs
 
 
Tabular Data for May 11, 2022
Time Temperature Dew Point Pressure Wind Wind Speed Wind Gust Humidity Rainfall Rate (Hourly) solar
00:04 78.0 °F 72.0 °F 30.1 in South 7 mph 7 mph 81% 0.000 in 0.00 W/m2
00:09 78.0 °F 72.0 °F 30.1 in South 7 mph 8 mph 81% 0.000 in 0.00 W/m2
00:14 78.0 °F 72.0 °F 30.1 in SSE 9 mph 11 mph 80% 0.000 in 0.00 W/m2
00:19 78.0 °F 72.0 °F 30.1 in SSE 11 mph 11 mph 80% 0.000 in 0.00 W/m2
00:24 78.0 °F 72.0 °F 30.1 in SE 11 mph 11 mph 80% 0.000 in 0.00 W/m2
00:29 78.0 °F 71.0 °F 30.2 in SSE 11 mph 11 mph 80% 0.000 in 0.00 W/m2
00:34 78.0 °F 71.0 °F 30.2 in SSE 10 mph 12 mph 80% 0.000 in 0.00 W/m2
00:39 78.0 °F 71.0 °F 30.2 in SSE 5 mph 7 mph 80% 0.000 in 0.00 W/m2
00:44 78.0 °F 71.0 °F 30.2 in SSE 5 mph 7 mph 80% 0.000 in 0.00 W/m2
00:49 78.0 °F 72.0 °F 30.1 in SSE 6 mph 7 mph 81% 0.000 in 0.00 W/m2
00:54 78.0 °F 72.0 °F 30.1 in SSE 5 mph 5 mph 81% 0.000 in 0.00 W/m2
00:59 78.0 °F 72.0 °F 30.1 in SSE 7 mph 8 mph 81% 0.000 in 0.00 W/m2
01:04 78.0 °F 71.0 °F 30.1 in SSE 13 mph 14 mph 81% 0.000 in 0.00 W/m2
01:09 78.0 °F 71.0 °F 30.1 in SSE 9 mph 10 mph 81% 0.000 in 0.00 W/m2
01:14 78.0 °F 71.0 °F 30.1 in SSE 5 mph 10 mph 81% 0.000 in 0.00 W/m2
01:19 78.0 °F 71.0 °F 30.1 in SSE 6 mph 8 mph 81% 0.000 in 0.00 W/m2
01:24 77.0 °F 71.0 °F 30.1 in SSE 9 mph 9 mph 81% 0.000 in 0.00 W/m2
01:29 77.0 °F 71.0 °F 30.1 in SSE 4 mph 9 mph 81% 0.000 in 0.00 W/m2
01:34 77.0 °F 71.0 °F 30.1 in SSE 7 mph 8 mph 81% 0.000 in 0.00 W/m2
01:39 77.0 °F 71.0 °F 30.1 in SSE 6 mph 7 mph 81% 0.000 in 0.00 W/m2
01:44 77.0 °F 71.0 °F 30.1 in SSE 4 mph 5 mph 82% 0.000 in 0.00 W/m2
01:49 77.0 °F 71.0 °F 30.1 in SSE 6 mph 6 mph 82% 0.000 in 0.00 W/m2
01:54 77.0 °F 71.0 °F 30.2 in SSE 3 mph 3 mph 82% 0.000 in 0.00 W/m2
01:59 77.0 °F 71.0 °F 30.2 in SSE 4 mph 6 mph 82% 0.000 in 0.00 W/m2
02:04 77.0 °F 71.0 °F 30.2 in SSE 6 mph 9 mph 82% 0.000 in 0.00 W/m2
02:09 77.0 °F 71.0 °F 30.2 in SSE 6 mph 9 mph 82% 0.000 in 0.00 W/m2
02:14 77.0 °F 71.0 °F 30.2 in SSE 7 mph 7 mph 83% 0.000 in 0.00 W/m2
02:19 77.0 °F 71.0 °F 30.2 in SSE 5 mph 5 mph 83% 0.000 in 0.00 W/m2
02:24 77.0 °F 71.0 °F 30.2 in SSE 5 mph 6 mph 83% 0.000 in 0.00 W/m2
02:29 77.0 °F 71.0 °F 30.2 in South 4 mph 6 mph 83% 0.000 in 0.00 W/m2
02:34 77.0 °F 71.0 °F 30.2 in South 2 mph 4 mph 83% 0.000 in 0.00 W/m2
02:39 77.0 °F 71.0 °F 30.2 in South 4 mph 4 mph 83% 0.000 in 0.00 W/m2
02:44 77.0 °F 71.0 °F 30.2 in South 1 mph 4 mph 83% 0.000 in 0.00 W/m2
02:49 77.0 °F 71.0 °F 30.2 in South 2 mph 4 mph 83% 0.000 in 0.00 W/m2
02:54 77.0 °F 71.0 °F 30.2 in South 3 mph 4 mph 83% 0.000 in 0.00 W/m2
02:59 77.0 °F 71.0 °F 30.2 in South 4 mph 6 mph 83% 0.000 in 0.00 W/m2
03:04 77.0 °F 71.0 °F 30.2 in SSE 4 mph 4 mph 84% 0.000 in 0.00 W/m2
03:09 77.0 °F 71.0 °F 30.2 in South 5 mph 8 mph 84% 0.000 in 0.00 W/m2
03:14 77.0 °F 71.0 °F 30.2 in SSE 3 mph 5 mph 84% 0.000 in 0.00 W/m2
03:19 77.0 °F 71.0 °F 30.2 in South 3 mph 5 mph 84% 0.000 in 0.00 W/m2
03:24 77.0 °F 71.0 °F 30.1 in SSE 3 mph 5 mph 84% 0.000 in 0.00 W/m2
03:29 76.0 °F 71.0 °F 30.1 in SSE 1 mph 3 mph 84% 0.000 in 0.00 W/m2
03:34 76.0 °F 71.0 °F 30.1 in SSE 4 mph 4 mph 84% 0.000 in 0.00 W/m2
03:39 76.0 °F 71.0 °F 30.1 in SSE 1 mph 2 mph 84% 0.000 in 0.00 W/m2
03:44 76.0 °F 71.0 °F 30.1 in SSE 3 mph 3 mph 84% 0.000 in 0.00 W/m2
03:49 76.0 °F 71.0 °F 30.1 in SSE 4 mph 5 mph 84% 0.000 in 0.00 W/m2
03:54 76.0 °F 71.0 °F 30.1 in SSE 2 mph 4 mph 84% 0.000 in 0.00 W/m2
03:59 76.0 °F 71.0 °F 30.1 in SSE 2 mph 4 mph 84% 0.000 in 0.00 W/m2
04:04 76.0 °F 71.0 °F 30.1 in SSE 4 mph 4 mph 85% 0.000 in 0.00 W/m2
04:09 76.0 °F 71.0 °F 30.1 in SSE 2 mph 4 mph 85% 0.000 in 0.00 W/m2
04:14 76.0 °F 71.0 °F 30.1 in SSE 2 mph 2 mph 85% 0.000 in 0.00 W/m2
04:19 76.0 °F 71.0 °F 30.1 in SSE 1 mph 1 mph 85% 0.000 in 0.00 W/m2
04:24 76.0 °F 71.0 °F 30.1 in Calm   1 mph 85% 0.000 in 0.00 W/m2
04:29 76.0 °F 71.0 °F 30.1 in SSE 1 mph 1 mph 85% 0.000 in 0.00 W/m2
04:34 76.0 °F 71.0 °F 30.1 in SSE 1 mph 1 mph 85% 0.000 in 0.00 W/m2
04:39 75.0 °F 71.0 °F 30.1 in SSE 1 mph 1 mph 85% 0.000 in 0.00 W/m2
04:44 75.0 °F 71.0 °F 30.1 in SSE 1 mph 1 mph 85% 0.000 in 0.00 W/m2
04:49 75.0 °F 70.0 °F 30.1 in Calm   1 mph 85% 0.000 in 0.00 W/m2
04:54 75.0 °F 70.0 °F 30.1 in Calm   1 mph 85% 0.000 in 0.00 W/m2
04:59 75.0 °F 70.0 °F 30.1 in Calm     85% 0.000 in 0.00 W/m2
05:04 75.0 °F 70.0 °F 30.1 in SSE 1 mph 1 mph 85% 0.000 in 0.00 W/m2
05:09 75.0 °F 70.0 °F 30.1 in SSE 1 mph 1 mph 85% 0.000 in 0.00 W/m2
05:14 75.0 °F 70.0 °F 30.1 in SSE 1 mph 1 mph 85% 0.000 in 0.00 W/m2
05:19 75.0 °F 70.0 °F 30.1 in SSE 1 mph 1 mph 86% 0.000 in 0.00 W/m2
05:24 75.0 °F 70.0 °F 30.1 in SSE 1 mph 1 mph 86% 0.000 in 0.00 W/m2
05:29 74.0 °F 70.0 °F 30.1 in Calm   1 mph 86% 0.000 in 0.00 W/m2
05:34 74.0 °F 70.0 °F 30.1 in Calm     86% 0.000 in 0.00 W/m2
05:39 74.0 °F 69.0 °F 30.1 in SSE 1 mph 1 mph 86% 0.000 in 0.00 W/m2
05:44 74.0 °F 69.0 °F 30.1 in SSE 1 mph 1 mph 86% 0.000 in 0.00 W/m2
05:49 74.0 °F 69.0 °F 30.1 in SSE 2 mph 2 mph 86% 0.000 in 0.00 W/m2
05:54 74.0 °F 69.0 °F 30.1 in SSE 1 mph 2 mph 86% 0.000 in 0.00 W/m2
05:59 74.0 °F 70.0 °F 30.1 in SSE 1 mph 1 mph 87% 0.000 in 0.00 W/m2
06:04 74.0 °F 70.0 °F 30.1 in SSE 2 mph 2 mph 87% 0.000 in 0.00 W/m2
06:09 74.0 °F 69.0 °F 30.1 in SSE 1 mph 1 mph 87% 0.000 in 0.00 W/m2
06:14 74.0 °F 69.0 °F 30.1 in SSE 2 mph 2 mph 87% 0.000 in 0.00 W/m2
06:19 73.0 °F 69.0 °F 30.1 in SSE 1 mph 2 mph 87% 0.000 in 0.00 W/m2
06:24 73.0 °F 69.0 °F 30.1 in SSE 1 mph 2 mph 87% 0.000 in 0.00 W/m2
06:29 73.0 °F 69.0 °F 30.1 in SSE 1 mph 1 mph 87% 0.000 in 5.00 W/m2
06:34 73.0 °F 69.0 °F 30.1 in SE 2 mph 2 mph 88% 0.000 in 7.00 W/m2
06:39 73.0 °F 69.0 °F 30.1 in East 2 mph 3 mph 88% 0.000 in 9.00 W/m2
06:44 73.0 °F 69.0 °F 30.1 in East 3 mph 4 mph 88% 0.000 in 14.00 W/m2
06:49 73.0 °F 70.0 °F 30.1 in ESE 1 mph 4 mph 88% 0.000 in 18.00 W/m2
06:54 73.0 °F 70.0 °F 30.1 in East 2 mph 2 mph 88% 0.000 in 21.00 W/m2
06:59 74.0 °F 70.0 °F 30.1 in ENE 2 mph 3 mph 88% 0.000 in 25.00 W/m2
07:04 74.0 °F 70.0 °F 30.1 in ENE 2 mph 2 mph 89% 0.000 in 30.00 W/m2
07:09 74.0 °F 70.0 °F 30.1 in East 2 mph 2 mph 89% 0.000 in 35.00 W/m2
07:14 74.0 °F 70.0 °F 30.1 in ESE 2 mph 2 mph 89% 0.000 in 44.00 W/m2
07:19 74.0 °F 70.0 °F 30.1 in SE 3 mph 4 mph 89% 0.000 in 49.00 W/m2
07:24 74.0 °F 71.0 °F 30.1 in ESE 3 mph 3 mph 89% 0.000 in 53.00 W/m2
07:29 74.0 °F 71.0 °F 30.2 in SE 2 mph 4 mph 89% 0.000 in 56.00 W/m2
07:34 74.0 °F 71.0 °F 30.2 in East 3 mph 3 mph 90% 0.000 in 60.00 W/m2
07:39 75.0 °F 71.0 °F 30.2 in East 3 mph 4 mph 90% 0.000 in 65.00 W/m2
07:44 75.0 °F 72.0 °F 30.2 in SE 7 mph 7 mph 90% 0.000 in 65.00 W/m2
07:49 75.0 °F 72.0 °F 30.2 in SE 4 mph 7 mph 90% 0.000 in 77.00 W/m2
07:54 75.0 °F 72.0 °F 30.2 in SE 7 mph 7 mph 90% 0.000 in 83.00 W/m2
07:59 75.0 °F 72.0 °F 30.2 in SE 3 mph 7 mph 90% 0.000 in 74.00 W/m2
08:04 75.0 °F 72.0 °F 30.2 in SE 4 mph 4 mph 90% 0.000 in 79.00 W/m2
08:09 76.0 °F 73.0 °F 30.2 in ESE 6 mph 6 mph 90% 0.000 in 102.00 W/m2
08:14 76.0 °F 73.0 °F 30.2 in SE 3 mph 4 mph 90% 0.000 in 151.00 W/m2
08:19 76.0 °F 73.0 °F 30.2 in SE 8 mph 8 mph 90% 0.000 in 128.00 W/m2
08:24 76.0 °F 73.0 °F 30.2 in SSE 7 mph 7 mph 90% 0.000 in 153.00 W/m2
08:29 76.0 °F 73.0 °F 30.2 in SSE 6 mph 7 mph 90% 0.000 in 162.00 W/m2
08:34 76.0 °F 73.0 °F 30.2 in SE 7 mph 8 mph 90% 0.000 in 139.00 W/m2
08:39 77.0 °F 73.0 °F 30.2 in SE 7 mph 8 mph 89% 0.000 in 156.00 W/m2
08:44 77.0 °F 73.0 °F 30.2 in SE 8 mph 9 mph 89% 0.000 in 186.00 W/m2
08:49 77.0 °F 74.0 °F 30.2 in SE 6 mph 6 mph 89% 0.000 in 186.00 W/m2
08:54 77.0 °F 74.0 °F 30.2 in SE 8 mph 8 mph 88% 0.000 in 262.00 W/m2
08:59 78.0 °F 74.0 °F 30.2 in SE 5 mph 5 mph 88% 0.000 in 427.00 W/m2
09:04 78.0 °F 74.0 °F 30.2 in SE 5 mph 7 mph 88% 0.000 in 469.00 W/m2
09:09 78.0 °F 74.0 °F 30.2 in SE 7 mph 8 mph 87% 0.000 in 469.00 W/m2
09:14 79.0 °F 74.0 °F 30.2 in SE 8 mph 9 mph 86% 0.000 in 461.00 W/m2
09:19 80.0 °F 74.0 °F 30.2 in SE 8 mph 9 mph 84% 0.000 in 497.00 W/m2
09:24 80.0 °F 74.0 °F 30.2 in SE 7 mph 9 mph 83% 0.000 in 512.00 W/m2
09:29 81.0 °F 74.0 °F 30.2 in SE 9 mph 9 mph 81% 0.000 in 536.00 W/m2
09:34 81.0 °F 74.0 °F 30.2 in SE 7 mph 7 mph 78% 0.000 in 536.00 W/m2
09:39 81.0 °F 73.0 °F 30.2 in SE 9 mph 9 mph 76% 0.000 in 200.00 W/m2
09:44 82.0 °F 73.0 °F 30.2 in SE 8 mph 9 mph 74% 0.000 in 548.00 W/m2
09:49 82.0 °F 73.0 °F 30.2 in SE 7 mph 8 mph 74% 0.000 in 540.00 W/m2
09:54 82.0 °F 73.0 °F 30.2 in SE 9 mph 9 mph 74% 0.000 in 492.00 W/m2
09:59 83.0 °F 73.0 °F 30.2 in SE 9 mph 9 mph 72% 0.000 in 469.00 W/m2
10:04 83.0 °F 72.0 °F 30.2 in SE 8 mph 11 mph 71% 0.000 in 424.00 W/m2
10:09 83.0 °F 72.0 °F 30.2 in SE 8 mph 9 mph 70% 0.000 in 545.00 W/m2
10:14 84.0 °F 73.0 °F 30.2 in SE 11 mph 11 mph 70% 0.000 in 545.00 W/m2
10:19 84.0 °F 72.0 °F 30.2 in SE 11 mph 12 mph 69% 0.000 in 689.00 W/m2
10:24 84.0 °F 72.0 °F 30.2 in SSE 11 mph 12 mph 68% 0.000 in 714.00 W/m2
10:29 84.0 °F 72.0 °F 30.2 in SE 14 mph 14 mph 67% 0.000 in 724.00 W/m2
10:34 85.0 °F 72.0 °F 30.2 in SE 10 mph 11 mph 65% 0.000 in 740.00 W/m2
10:39 85.0 °F 72.0 °F 30.2 in SE 13 mph 13 mph 65% 0.000 in 779.00 W/m2
10:44 85.0 °F 72.0 °F 30.2 in SE 9 mph 10 mph 65% 0.000 in 791.00 W/m2
10:49 86.0 °F 72.0 °F 30.2 in SE 10 mph 10 mph 64% 0.000 in 898.00 W/m2
10:54 86.0 °F 72.0 °F 30.2 in SE 8 mph 10 mph 64% 0.000 in 898.00 W/m2
10:59 86.0 °F 72.0 °F 30.2 in SSE 7 mph 9 mph 64% 0.000 in 330.00 W/m2
11:04 86.0 °F 72.0 °F 30.2 in SSE 10 mph 10 mph 64% 0.000 in 278.00 W/m2
11:09 86.0 °F 73.0 °F 30.2 in SSE 7 mph 9 mph 65% 0.000 in 265.00 W/m2
11:14 86.0 °F 72.0 °F 30.2 in SSE 6 mph 7 mph 64% 0.000 in 248.00 W/m2
11:19 86.0 °F 72.0 °F 30.2 in SSE 9 mph 9 mph 63% 0.000 in 886.00 W/m2
11:24 87.0 °F 73.0 °F 30.2 in SSE 7 mph 7 mph 63% 0.000 in 886.00 W/m2
11:29 87.0 °F 73.0 °F 30.2 in SE 9 mph 9 mph 63% 0.000 in 870.00 W/m2
11:34 87.0 °F 73.0 °F 30.2 in SE 8 mph 9 mph 62% 0.000 in 877.00 W/m2
11:39 88.0 °F 72.0 °F 30.2 in SE 8 mph 10 mph 61% 0.000 in 904.00 W/m2
11:44 88.0 °F 73.0 °F 30.2 in SE 8 mph 8 mph 60% 0.000 in 877.00 W/m2
11:49 89.0 °F 72.0 °F 30.2 in SE 11 mph 11 mph 59% 0.000 in 882.00 W/m2
11:54 89.0 °F 72.0 °F 30.2 in SE 13 mph 13 mph 58% 0.000 in 911.00 W/m2
11:59 89.0 °F 73.0 °F 30.2 in SE 8 mph 8 mph 59% 0.000 in 930.00 W/m2
12:04 89.0 °F 73.0 °F 30.2 in SE 9 mph 11 mph 59% 0.000 in 909.00 W/m2
12:09 89.0 °F 73.0 °F 30.2 in SE 9 mph 10 mph 59% 0.000 in 970.00 W/m2
12:14 90.0 °F 74.0 °F 30.2 in ESE 12 mph 12 mph 59% 0.000 in 979.00 W/m2
12:19 90.0 °F 73.0 °F 30.2 in SSE 9 mph 12 mph 57% 0.000 in 949.00 W/m2
12:24 90.0 °F 72.0 °F 30.1 in SSE 9 mph 11 mph 56% 0.000 in 867.00 W/m2
12:29 90.0 °F 71.0 °F 30.1 in SE 8 mph 11 mph 54% 0.000 in 868.00 W/m2
12:34 90.0 °F 72.0 °F 30.1 in SE 7 mph 10 mph 56% 0.000 in 847.00 W/m2
12:39 90.0 °F 73.0 °F 30.1 in SE 9 mph 10 mph 56% 0.000 in 842.00 W/m2
12:44 90.0 °F 72.0 °F 30.1 in SE 9 mph 10 mph 55% 0.000 in 782.00 W/m2
12:49 91.0 °F 73.0 °F 30.1 in SE 10 mph 11 mph 56% 0.000 in 830.00 W/m2
12:54 91.0 °F 73.0 °F 30.1 in SSE 8 mph 9 mph 56% 0.000 in 833.00 W/m2
12:59 91.0 °F 72.0 °F 30.1 in South 7 mph 9 mph 55% 0.000 in 756.00 W/m2
13:04 91.0 °F 73.0 °F 30.1 in ESE 8 mph 8 mph 56% 0.000 in 793.00 W/m2
13:09 91.0 °F 73.0 °F 30.1 in SE 7 mph 9 mph 56% 0.000 in 693.00 W/m2
13:14 91.0 °F 72.0 °F 30.1 in SE 7 mph 9 mph 55% 0.000 in 671.00 W/m2
13:19 90.0 °F 72.0 °F 30.1 in SE 10 mph 11 mph 55% 0.000 in 684.00 W/m2
13:24 90.0 °F 72.0 °F 30.1 in SE 9 mph 9 mph 55% 0.000 in 782.00 W/m2
13:29 90.0 °F 74.0 °F 30.1 in SSE 8 mph 8 mph 59% 0.000 in 814.00 W/m2
13:34 91.0 °F 74.0 °F 30.1 in SE 8 mph 8 mph 58% 0.000 in 835.00 W/m2
13:39 91.0 °F 72.0 °F 30.1 in SE 7 mph 9 mph 55% 0.000 in 977.00 W/m2
13:44 91.0 °F 73.0 °F 30.1 in SE 10 mph 10 mph 55% 0.000 in 990.00 W/m2
13:49 91.0 °F 73.0 °F 30.1 in SE 9 mph 11 mph 55% 0.000 in 898.00 W/m2
13:54 91.0 °F 72.0 °F 30.1 in SE 9 mph 11 mph 54% 0.000 in 882.00 W/m2
13:59 91.0 °F 73.0 °F 30.1 in SE 10 mph 11 mph 55% 0.000 in 993.00 W/m2
14:04 91.0 °F 72.0 °F 30.1 in SE 9 mph 11 mph 54% 0.000 in 979.00 W/m2
14:09 91.0 °F 72.0 °F 30.1 in SE 9 mph 10 mph 54% 0.000 in 990.00 W/m2
14:14 91.0 °F 72.0 °F 30.1 in SE 10 mph 13 mph 53% 0.000 in 991.00 W/m2
14:19 92.0 °F 73.0 °F 30.1 in SE 10 mph 13 mph 54% 0.000 in 974.00 W/m2
14:24 92.0 °F 72.0 °F 30.1 in ESE 10 mph 10 mph 53% 0.000 in 946.00 W/m2
14:29 91.0 °F 72.0 °F 30.1 in SE 7 mph 8 mph 54% 0.000 in 946.00 W/m2
14:34 91.0 °F 72.0 °F 30.1 in SE 13 mph 14 mph 54% 0.000 in 923.00 W/m2
14:39 92.0 °F 73.0 °F 30.1 in SE 9 mph 9 mph 54% 0.000 in 884.00 W/m2
14:44 92.0 °F 72.0 °F 30.1 in SE 10 mph 10 mph 54% 0.000 in 919.00 W/m2
14:49 91.0 °F 72.0 °F 30.1 in ESE 13 mph 15 mph 54% 0.000 in 909.00 W/m2
14:54 92.0 °F 73.0 °F 30.1 in ESE 9 mph 11 mph 54% 0.000 in 916.00 W/m2
14:59 92.0 °F 73.0 °F 30.1 in SE 7 mph 11 mph 55% 0.000 in 911.00 W/m2
15:04 92.0 °F 73.0 °F 30.1 in SE 8 mph 10 mph 53% 0.000 in 902.00 W/m2
15:09 92.0 °F 73.0 °F 30.1 in SE 10 mph 12 mph 53% 0.000 in 875.00 W/m2
15:14 92.0 °F 73.0 °F 30.1 in SE 13 mph 13 mph 53% 0.000 in 831.00 W/m2
15:19 92.0 °F 72.0 °F 30.1 in SE 13 mph 14 mph 52% 0.000 in 842.00 W/m2
15:24 92.0 °F 72.0 °F 30.1 in SE 9 mph 14 mph 53% 0.000 in 819.00 W/m2
15:29 91.0 °F 72.0 °F 30.1 in SE 8 mph 10 mph 53% 0.000 in 823.00 W/m2
15:34 91.0 °F 72.0 °F 30.1 in ESE 12 mph 13 mph 53% 0.000 in 810.00 W/m2
15:39 92.0 °F 72.0 °F 30.1 in ESE 13 mph 13 mph 53% 0.000 in 796.00 W/m2
15:44 92.0 °F 71.0 °F 30.1 in SE 8 mph 13 mph 52% 0.000 in 786.00 W/m2
15:49 92.0 °F 71.0 °F 30.1 in ESE 13 mph 13 mph 52% 0.000 in 770.00 W/m2
15:54 92.0 °F 71.0 °F 30.1 in ESE 10 mph 13 mph 52% 0.000 in 759.00 W/m2
15:59 92.0 °F 71.0 °F 30.1 in SE 12 mph 12 mph 51% 0.000 in 752.00 W/m2
16:04 91.0 °F 71.0 °F 30.1 in SE 10 mph 12 mph 52% 0.000 in 728.00 W/m2
16:09 91.0 °F 71.0 °F 30.1 in SE 13 mph 13 mph 52% 0.000 in 719.00 W/m2
16:14 91.0 °F 70.0 °F 30.1 in SE 10 mph 12 mph 51% 0.000 in 712.00 W/m2
16:19 91.0 °F 70.0 °F 30.1 in SE 14 mph 14 mph 51% 0.000 in 696.00 W/m2
16:24 91.0 °F 71.0 °F 30.1 in SE 11 mph 11 mph 52% 0.000 in 686.00 W/m2
16:29 91.0 °F 70.0 °F 30.1 in ESE 15 mph 15 mph 50% 0.000 in 668.00 W/m2
16:34 91.0 °F 70.0 °F 30.1 in ESE 8 mph 9 mph 51% 0.000 in 652.00 W/m2
16:39 91.0 °F 71.0 °F 30.1 in SE 12 mph 12 mph 51% 0.000 in 640.00 W/m2
16:44 91.0 °F 71.0 °F 30.1 in SE 11 mph 11 mph 51% 0.000 in 622.00 W/m2
16:49 91.0 °F 70.0 °F 30.1 in ESE 10 mph 10 mph 50% 0.000 in 606.00 W/m2
16:54 91.0 °F 70.0 °F 30.1 in SE 10 mph 10 mph 50% 0.000 in 592.00 W/m2
16:59 91.0 °F 70.0 °F 30.1 in SE 10 mph 11 mph 50% 0.000 in 580.00 W/m2
17:04 91.0 °F 70.0 °F 30.1 in SE 6 mph 11 mph 50% 0.000 in 563.00 W/m2
17:09 91.0 °F 70.0 °F 30.1 in SE 8 mph 10 mph 50% 0.000 in 547.00 W/m2
17:14 92.0 °F 71.0 °F 30.1 in SE 10 mph 11 mph 51% 0.000 in 531.00 W/m2
17:19 92.0 °F 71.0 °F 30.1 in SE 9 mph 11 mph 52% 0.000 in 515.00 W/m2
17:24 91.0 °F 72.0 °F 30.1 in SE 9 mph 11 mph 54% 0.000 in 496.00 W/m2
17:29 91.0 °F 72.0 °F 30.1 in SE 9 mph 9 mph 54% 0.000 in 480.00 W/m2
17:34 91.0 °F 72.0 °F 30.1 in SE 9 mph 9 mph 54% 0.000 in 461.00 W/m2
17:39 91.0 °F 71.0 °F 30.1 in ESE 10 mph 11 mph 53% 0.000 in 445.00 W/m2
17:44 91.0 °F 71.0 °F 30.1 in SE 10 mph 11 mph 53% 0.000 in 429.00 W/m2
17:49 90.0 °F 72.0 °F 30.1 in SE 7 mph 9 mph 55% 0.000 in 415.00 W/m2
17:54 90.0 °F 72.0 °F 30.1 in SE 8 mph 9 mph 55% 0.000 in 392.00 W/m2
17:59 90.0 °F 73.0 °F 30.1 in SE 5 mph 9 mph 56% 0.000 in 376.00 W/m2
18:04 90.0 °F 73.0 °F 30.1 in ESE 9 mph 11 mph 56% 0.000 in 355.00 W/m2
18:09 90.0 °F 72.0 °F 30.1 in ESE 8 mph 10 mph 55% 0.000 in 343.00 W/m2
18:14 90.0 °F 72.0 °F 30.1 in East 10 mph 10 mph 55% 0.000 in 322.00 W/m2
18:19 90.0 °F 72.0 °F 30.1 in ESE 12 mph 12 mph 55% 0.000 in 304.00 W/m2
18:24 90.0 °F 72.0 °F 30.1 in ESE 9 mph 12 mph 55% 0.000 in 285.00 W/m2
18:29 90.0 °F 72.0 °F 30.1 in SE 10 mph 11 mph 56% 0.000 in 269.00 W/m2
18:34 89.0 °F 72.0 °F 30.1 in SE 8 mph 9 mph 56% 0.000 in 250.00 W/m2
18:39 89.0 °F 72.0 °F 30.1 in SE 7 mph 9 mph 57% 0.000 in 232.00 W/m2
18:44 89.0 °F 72.0 °F 30.1 in East 7 mph 8 mph 57% 0.000 in 211.00 W/m2
18:49 89.0 °F 71.0 °F 30.1 in ESE 12 mph 13 mph 57% 0.000 in 197.00 W/m2
18:54 88.0 °F 72.0 °F 30.1 in ESE 11 mph 13 mph 59% 0.000 in 176.00 W/m2
18:59 88.0 °F 72.0 °F 30.1 in ESE 12 mph 12 mph 60% 0.000 in 156.00 W/m2
19:04 87.0 °F 72.0 °F 30.1 in SE 9 mph 10 mph 61% 0.000 in 134.00 W/m2
19:09 87.0 °F 72.0 °F 30.1 in SE 9 mph 10 mph 62% 0.000 in 49.00 W/m2
19:14 87.0 °F 72.0 °F 30.1 in SE 11 mph 12 mph 63% 0.000 in 44.00 W/m2
19:19 86.0 °F 72.0 °F 30.1 in SE 9 mph 9 mph 63% 0.000 in 39.00 W/m2
19:24 86.0 °F 72.0 °F 30.1 in SE 9 mph 9 mph 64% 0.000 in 35.00 W/m2
19:29 85.0 °F 71.0 °F 30.1 in SE 11 mph 11 mph 64% 0.000 in 30.00 W/m2
19:34 85.0 °F 71.0 °F 30.1 in SE 9 mph 11 mph 65% 0.000 in 28.00 W/m2
19:39 84.0 °F 71.0 °F 30.1 in SE 9 mph 10 mph 65% 0.000 in 23.00 W/m2
19:44 84.0 °F 71.0 °F 30.1 in SE 10 mph 11 mph 65% 0.000 in 21.00 W/m2
19:49 84.0 °F 71.0 °F 30.1 in SE 9 mph 9 mph 66% 0.000 in 16.00 W/m2
19:54 83.0 °F 71.0 °F 30.1 in ESE 11 mph 12 mph 67% 0.000 in 12.00 W/m2
19:59 83.0 °F 71.0 °F 30.1 in SE 9 mph 12 mph 67% 0.000 in 9.00 W/m2
20:04 83.0 °F 71.0 °F 30.1 in SE 9 mph 10 mph 68% 0.000 in 5.00 W/m2
20:09 82.0 °F 70.0 °F 30.1 in SE 8 mph 10 mph 67% 0.000 in 0.00 W/m2
20:14 82.0 °F 70.0 °F 30.1 in SE 8 mph 10 mph 67% 0.000 in 0.00 W/m2
20:19 82.0 °F 69.0 °F 30.1 in SE 9 mph 10 mph 67% 0.000 in 0.00 W/m2
20:24 81.0 °F 70.0 °F 30.1 in ESE 9 mph 10 mph 68% 0.000 in 0.00 W/m2
20:29 81.0 °F 69.0 °F 30.1 in SE 7 mph 9 mph 68% 0.000 in 0.00 W/m2
20:34 81.0 °F 70.0 °F 30.1 in SE 9 mph 9 mph 69% 0.000 in 0.00 W/m2
20:39 81.0 °F 69.0 °F 30.1 in SE 7 mph 7 mph 69% 0.000 in 0.00 W/m2
20:44 80.0 °F 69.0 °F 30.1 in SE 8 mph 9 mph 69% 0.000 in 0.00 W/m2
20:49 80.0 °F 69.0 °F 30.1 in SE 6 mph 9 mph 70% 0.000 in 0.00 W/m2
20:54 80.0 °F 69.0 °F 30.1 in SE 8 mph 8 mph 70% 0.000 in 0.00 W/m2
20:59 80.0 °F 69.0 °F 30.1 in SE 7 mph 8 mph 70% 0.000 in 0.00 W/m2
21:04 80.0 °F 69.0 °F 30.1 in SE 9 mph 9 mph 70% 0.000 in 0.00 W/m2
21:09 80.0 °F 69.0 °F 30.1 in SE 5 mph 9 mph 70% 0.000 in 0.00 W/m2
21:19 79.0 °F 69.0 °F 30.1 in SE 6 mph 9 mph 71% 0.000 in 0.00 W/m2
21:24 79.0 °F 69.0 °F 30.1 in SE 9 mph 9 mph 72% 0.000 in 0.00 W/m2
21:29 79.0 °F 69.0 °F 30.1 in SE 7 mph 7 mph 72% 0.000 in 0.00 W/m2
21:34 79.0 °F 69.0 °F 30.1 in SE 7 mph 7 mph 72% 0.000 in 0.00 W/m2
21:39 79.0 °F 69.0 °F 30.1 in SE 7 mph 7 mph 73% 0.000 in 0.00 W/m2
21:44 78.0 °F 69.0 °F 30.1 in SE 5 mph 7 mph 73% 0.000 in 0.00 W/m2
21:49 78.0 °F 69.0 °F 30.1 in SE 5 mph 8 mph 73% 0.000 in 0.00 W/m2
21:54 78.0 °F 69.0 °F 30.1 in ESE 4 mph 4 mph 73% 0.000 in 0.00 W/m2
21:59 78.0 °F 69.0 °F 30.1 in ESE 6 mph 6 mph 74% 0.000 in 0.00 W/m2
22:04 78.0 °F 69.0 °F 30.1 in SE 5 mph 6 mph 74% 0.000 in 0.00 W/m2
22:09 78.0 °F 69.0 °F 30.1 in SE 6 mph 7 mph 75% 0.000 in 0.00 W/m2
22:14 78.0 °F 69.0 °F 30.1 in SE 5 mph 6 mph 75% 0.000 in 0.00 W/m2
22:19 78.0 °F 69.0 °F 30.1 in SE 4 mph 5 mph 75% 0.000 in 0.00 W/m2
22:24 78.0 °F 69.0 °F 30.1 in SE 6 mph 6 mph 76% 0.000 in 0.00 W/m2
22:34 77.0 °F 69.0 °F 30.1 in SE 8 mph 8 mph 76% 0.000 in 0.00 W/m2
22:39 77.0 °F 69.0 °F 30.1 in SE 8 mph 8 mph 76% 0.000 in 0.00 W/m2
22:44 77.0 °F 69.0 °F 30.1 in SE 5 mph 8 mph 77% 0.000 in 0.00 W/m2
22:49 77.0 °F 69.0 °F 30.1 in SE 6 mph 7 mph 77% 0.000 in 0.00 W/m2
22:54 77.0 °F 69.0 °F 30.1 in SE 5 mph 7 mph 77% 0.000 in 0.00 W/m2
22:59 77.0 °F 69.0 °F 30.1 in SE 4 mph 7 mph 77% 0.000 in 0.00 W/m2
23:04 77.0 °F 69.0 °F 30.1 in SE 7 mph 7 mph 77% 0.000 in 0.00 W/m2
23:09 77.0 °F 69.0 °F 30.1 in SE 4 mph 7 mph 78% 0.000 in 0.00 W/m2
23:14 77.0 °F 69.0 °F 30.1 in SSE 3 mph 3 mph 78% 0.000 in 0.00 W/m2
23:19 77.0 °F 69.0 °F 30.1 in SSE 3 mph 3 mph 78% 0.000 in 0.00 W/m2
23:24 77.0 °F 69.0 °F 30.1 in SSE 4 mph 5 mph 78% 0.000 in 0.00 W/m2
23:29 76.0 °F 69.0 °F 30.1 in SE 3 mph 4 mph 78% 0.000 in 0.00 W/m2
23:34 76.0 °F 69.0 °F 30.1 in SSE 3 mph 4 mph 78% 0.000 in 0.00 W/m2
23:39 76.0 °F 69.0 °F 30.1 in SE 4 mph 4 mph 78% 0.000 in 0.00 W/m2
23:44 76.0 °F 69.0 °F 30.1 in SE 3 mph 4 mph 78% 0.000 in 0.00 W/m2
23:49 76.0 °F 69.0 °F 30.1 in SSE 4 mph 4 mph 79% 0.000 in 0.00 W/m2
23:54 76.0 °F 69.0 °F 30.1 in SSE 5 mph 5 mph 79% 0.000 in 0.00 W/m2
23:59 76.0 °F 69.0 °F 30.1 in SSE 2 mph 4 mph 79% 0.000 in 0.00 W/m2
Villages of Bridgestone, Spring, TX USA
Compliments of Weather Underground - 4 mb